Time;durP1;ratioP1;P1;durP2;ratioP2;P2;SDS_P1;SDS_P2;PMS_P1;PMS_P2;Temp;Humidity;BMP_temperature;BMP_pressure;BME280_temperature;BME280_humidity;BME280_pressure;Samples;Min_cycle;Max_cycle;Signal;HPM_P1;HPM_P2
2024/01/17 00:00:16;;;;;;;9.45;6.38;;;0.90;86.30;;;;;;5015873;28;20061;-83
2024/01/17 00:02:42;;;;;;;9.80;5.60;;;1.00;86.30;;;;;;5032497;28;20180;-82
2024/01/17 00:05:11;;;;;;;10.27;4.90;;;0.90;86.50;;;;;;5016277;28;20042;-83
2024/01/17 00:07:37;;;;;;;14.23;7.65;;;1.00;86.50;;;;;;5015788;28;20034;-82
2024/01/17 00:10:06;;;;;;;10.40;6.38;;;1.00;86.60;;;;;;4999801;28;20084;-83
2024/01/17 00:12:32;;;;;;;11.00;6.72;;;0.90;86.90;;;;;;5032723;28;20033;-83
2024/01/17 00:14:58;;;;;;;11.88;6.10;;;0.90;86.80;;;;;;5015607;28;20139;-83
2024/01/17 00:17:24;;;;;;;11.63;7.38;;;0.90;87.00;;;;;;5015877;28;20128;-83
2024/01/17 00:19:50;;;;;;;8.75;7.13;;;0.90;86.90;;;;;;5001953;28;20504;-82
2024/01/17 00:22:16;;;;;;;11.07;7.55;;;0.90;86.80;;;;;;5003480;28;20041;-82
2024/01/17 00:24:42;;;;;;;8.98;6.85;;;1.00;86.90;;;;;;4984447;28;20049;-82
2024/01/17 00:27:08;;;;;;;8.88;6.85;;;0.90;86.80;;;;;;5000640;28;20084;-83
2024/01/17 00:29:34;;;;;;;13.50;6.93;;;1.00;86.70;;;;;;5000083;28;20033;-82
2024/01/17 00:32:01;;;;;;;15.40;7.30;;;1.00;86.60;;;;;;4983609;28;20038;-82
2024/01/17 00:34:27;;;;;;;11.52;7.13;;;0.90;86.80;;;;;;4999723;28;20084;-82
2024/01/17 00:36:52;;;;;;;13.27;7.68;;;0.90;86.80;;;;;;4983710;28;20438;-83
2024/01/17 00:39:18;;;;;;;9.68;6.75;;;0.90;86.90;;;;;;4999546;28;20128;-82
2024/01/17 00:41:47;;;;;;;10.40;6.85;;;0.90;86.90;;;;;;5015970;28;20037;-83
2024/01/17 00:44:16;;;;;;;16.42;7.60;;;0.90;87.10;;;;;;4999658;28;20048;-83
2024/01/17 00:46:42;;;;;;;11.90;7.15;;;0.90;87.40;;;;;;5005319;28;20056;-82
2024/01/17 00:49:08;;;;;;;14.82;7.20;;;0.90;87.50;;;;;;4983423;28;20128;-82
2024/01/17 00:51:35;;;;;;;12.00;6.78;;;0.90;87.50;;;;;;5000163;28;20033;-83
2024/01/17 00:54:00;;;;;;;10.75;7.05;;;0.90;87.70;;;;;;5019126;28;20049;-84
2024/01/17 00:56:26;;;;;;;11.85;6.18;;;0.90;87.70;;;;;;5032833;28;20041;-82
2024/01/17 00:58:52;;;;;;;9.77;6.75;;;0.90;87.60;;;;;;4999394;28;20121;-82
2024/01/17 01:01:19;;;;;;;10.40;7.20;;;0.90;87.50;;;;;;4982859;28;20077;-82
2024/01/17 01:03:45;;;;;;;8.70;6.13;;;0.90;87.70;;;;;;5000183;28;20054;-82
2024/01/17 01:06:11;;;;;;;10.68;6.65;;;0.90;87.60;;;;;;5018846;28;20038;-82
2024/01/17 01:08:37;;;;;;;13.45;7.85;;;0.90;87.80;;;;;;5018714;28;20041;-83
2024/01/17 01:11:03;;;;;;;12.10;7.47;;;0.90;87.80;;;;;;5018677;28;20041;-83
2024/01/17 01:13:29;;;;;;;13.43;7.90;;;0.90;87.80;;;;;;5017350;28;20401;-82
2024/01/17 01:15:54;;;;;;;13.13;7.95;;;0.90;87.90;;;;;;5002445;28;20045;-83
2024/01/17 01:18:20;;;;;;;14.50;7.70;;;0.90;87.90;;;;;;5018515;28;20045;-83
2024/01/17 01:20:46;;;;;;;12.27;7.38;;;0.90;87.90;;;;;;5034967;28;20124;-83
2024/01/17 01:23:12;;;;;;;10.90;6.85;;;0.90;88.00;;;;;;5002285;28;20092;-82
2024/01/17 01:25:38;;;;;;;12.90;7.82;;;0.90;87.90;;;;;;4998859;28;20042;-82
2024/01/17 01:28:04;;;;;;;14.48;7.90;;;0.90;87.90;;;;;;5015331;28;20048;-83
2024/01/17 01:30:31;;;;;;;14.90;8.30;;;0.80;87.90;;;;;;5015093;28;20034;-83
2024/01/17 01:32:57;;;;;;;13.85;7.90;;;0.80;87.80;;;;;;4999175;28;20367;-82
2024/01/17 01:35:22;;;;;;;14.27;8.15;;;0.80;87.80;;;;;;4998692;28;20045;-82
2024/01/17 01:37:48;;;;;;;13.52;7.97;;;0.70;87.90;;;;;;5001369;28;20441;-82
2024/01/17 01:40:14;;;;;;;13.75;7.93;;;0.80;88.00;;;;;;5001925;28;20041;-82
2024/01/17 01:42:43;;;;;;;10.73;8.32;;;0.70;88.10;;;;;;5018205;28;20037;-83
2024/01/17 01:45:10;;;;;;;12.80;7.63;;;0.70;88.00;;;;;;5034589;28;20080;-82
2024/01/17 01:47:36;;;;;;;11.05;6.88;;;0.70;88.20;;;;;;5018309;28;20505;-83
2024/01/17 01:50:05;;;;;;;12.20;6.82;;;0.70;88.30;;;;;;5034696;28;20038;-81
2024/01/17 01:52:34;;;;;;;12.70;8.25;;;0.70;88.40;;;;;;5018491;28;20033;-81
2024/01/17 01:55:02;;;;;;;13.40;8.02;;;0.80;88.50;;;;;;5034502;28;20045;-82
2024/01/17 01:57:29;;;;;;;12.52;8.15;;;0.70;88.50;;;;;;5034467;28;20049;-82
2024/01/17 01:59:56;;;;;;;16.15;8.07;;;0.70;88.60;;;;;;5033605;28;20041;-81
2024/01/17 02:02:23;;;;;;;13.80;7.82;;;0.80;88.60;;;;;;5017925;28;20057;-82
2024/01/17 02:04:52;;;;;;;10.77;7.55;;;0.70;88.80;;;;;;4985614;28;20037;-82
2024/01/17 02:07:21;;;;;;;16.20;8.65;;;0.70;88.60;;;;;;5017819;28;20111;-82
2024/01/17 02:09:48;;;;;;;14.73;8.20;;;0.70;88.60;;;;;;5034175;28;20140;-81
2024/01/17 02:12:15;;;;;;;14.32;8.57;;;0.70;88.80;;;;;;5001422;28;20084;-81
2024/01/17 02:14:43;;;;;;;11.27;8.25;;;0.70;89.00;;;;;;5017986;28;20486;-80
2024/01/17 02:17:09;;;;;;;14.02;8.88;;;0.60;89.00;;;;;;5014499;28;20088;-81
2024/01/17 02:19:36;;;;;;;14.27;8.98;;;0.60;89.00;;;;;;5014195;28;20484;-81
2024/01/17 02:22:02;;;;;;;17.00;9.88;;;0.60;89.00;;;;;;5017653;28;20041;-81
2024/01/17 02:24:28;;;;;;;15.60;9.13;;;0.60;88.80;;;;;;4982887;28;20389;-81
2024/01/17 02:26:55;;;;;;;12.27;8.02;;;0.70;88.70;;;;;;5014009;28;20125;-80
2024/01/17 02:29:21;;;;;;;15.25;8.70;;;0.60;88.80;;;;;;4981632;28;20513;-80
2024/01/17 02:31:48;;;;;;;12.52;9.02;;;0.70;88.80;;;;;;4981873;28;20041;-80
2024/01/17 02:34:14;;;;;;;15.27;9.80;;;0.70;88.70;;;;;;5014216;28;20548;-81
2024/01/17 02:36:39;;;;;;;15.38;9.82;;;0.70;88.80;;;;;;4981320;28;20128;-80
2024/01/17 02:39:05;;;;;;;19.65;11.57;;;0.60;88.80;;;;;;4985820;28;20037;-80
2024/01/17 02:41:31;;;;;;;15.10;9.02;;;0.60;89.10;;;;;;5000058;28;20041;-80
2024/01/17 02:43:57;;;;;;;16.90;9.55;;;0.60;89.30;;;;;;5016810;28;20046;-81
2024/01/17 02:46:27;;;;;;;15.20;10.95;;;0.60;89.20;;;;;;5000662;28;20127;-80
2024/01/17 02:48:52;;;;;;;11.80;9.13;;;0.60;89.30;;;;;;5016828;28;20068;-80
2024/01/17 02:51:18;;;;;;;16.67;10.55;;;0.60;89.20;;;;;;5016951;28;20041;-80
2024/01/17 02:53:44;;;;;;;15.55;11.13;;;0.60;89.40;;;;;;5016881;28;20470;-80
2024/01/17 02:56:09;;;;;;;18.17;10.70;;;0.60;89.40;;;;;;5000596;28;20041;-80
2024/01/17 02:58:35;;;;;;;16.25;11.65;;;0.60;89.50;;;;;;4999186;28;20052;-82
2024/01/17 03:01:01;;;;;;;18.73;10.98;;;0.60;89.60;;;;;;5007384;28;20229;-80
2024/01/17 03:03:26;;;;;;;16.15;8.77;;;0.60;89.50;;;;;;5000381;28;20045;-81
2024/01/17 03:05:52;;;;;;;17.65;10.05;;;0.70;89.30;;;;;;4984203;28;20064;-79
2024/01/17 03:08:18;;;;;;;15.20;10.23;;;0.60;89.40;;;;;;4984083;28;20042;-80
2024/01/17 03:10:43;;;;;;;16.33;11.45;;;0.60;89.70;;;;;;5000090;28;20120;-79
2024/01/17 03:13:12;;;;;;;14.68;10.40;;;0.60;89.50;;;;;;5000336;28;20041;-80
2024/01/17 03:15:39;;;;;;;20.17;11.30;;;0.60;89.60;;;;;;5032196;28;20073;-80
2024/01/17 03:18:08;;;;;;;15.73;11.68;;;0.70;89.60;;;;;;4984075;28;20041;-81
2024/01/17 03:20:34;;;;;;;18.30;11.40;;;0.60;89.50;;;;;;5016922;28;20042;-81
2024/01/17 03:22:59;;;;;;;19.83;12.05;;;0.60;89.60;;;;;;5016299;28;20041;-80
2024/01/17 03:25:26;;;;;;;18.55;11.88;;;0.60;89.70;;;;;;4999580;28;20131;-81
2024/01/17 03:27:51;;;;;;;17.67;11.38;;;0.60;89.70;;;;;;5016303;28;20038;-81
2024/01/17 03:30:17;;;;;;;19.63;12.32;;;0.60;90.00;;;;;;5032653;28;20040;-81
2024/01/17 03:32:43;;;;;;;19.30;12.60;;;0.60;90.20;;;;;;5016426;28;20049;-81
2024/01/17 03:35:09;;;;;;;17.65;11.63;;;0.60;90.10;;;;;;5016134;28;20514;-80
2024/01/17 03:37:36;;;;;;;17.52;11.90;;;0.60;90.10;;;;;;5016116;28;20116;-80
2024/01/17 03:40:02;;;;;;;16.67;12.07;;;0.60;90.10;;;;;;5016093;28;20126;-80
2024/01/17 03:42:27;;;;;;;19.50;13.10;;;0.60;90.60;;;;;;5015834;28;20073;-80
2024/01/17 03:44:53;;;;;;;20.33;13.60;;;0.50;90.60;;;;;;5015735;28;20049;-81
2024/01/17 03:47:19;;;;;;;21.65;10.73;;;0.60;90.50;;;;;;4983210;28;20037;-80
2024/01/17 03:49:44;;;;;;;19.63;11.95;;;0.60;90.50;;;;;;4999407;28;20449;-81
2024/01/17 03:52:10;;;;;;;20.63;12.52;;;0.60;90.50;;;;;;4999273;28;20118;-80
2024/01/17 03:54:39;;;;;;;19.83;13.13;;;0.60;90.50;;;;;;5015637;28;20060;-80
2024/01/17 03:57:05;;;;;;;20.48;12.43;;;0.60;90.20;;;;;;5016160;28;20437;-80
2024/01/17 03:59:31;;;;;;;16.58;12.00;;;0.60;90.60;;;;;;5011659;28;20053;-81
2024/01/17 04:01:56;;;;;;;20.02;12.60;;;0.60;90.40;;;;;;5012096;28;20054;-81
2024/01/17 04:04:22;;;;;;;18.60;12.32;;;0.60;90.60;;;;;;4979902;28;20042;-81
2024/01/17 04:06:48;;;;;;;17.90;12.48;;;0.60;90.60;;;;;;4995921;28;20050;-80
2024/01/17 04:09:13;;;;;;;21.38;13.02;;;0.60;90.70;;;;;;4999354;28;20124;-81
2024/01/17 04:11:39;;;;;;;18.17;13.77;;;0.60;90.80;;;;;;4999614;28;20037;-80
2024/01/17 04:14:06;;;;;;;19.48;12.50;;;0.60;90.80;;;;;;5015564;28;20067;-80
2024/01/17 04:16:34;;;;;;;22.10;13.48;;;0.60;90.70;;;;;;5028864;28;20069;-80
2024/01/17 04:19:00;;;;;;;18.20;12.90;;;0.60;90.60;;;;;;4995629;28;20041;-80
2024/01/17 04:21:26;;;;;;;18.98;12.40;;;0.60;90.50;;;;;;4995932;28;20052;-81
2024/01/17 04:23:51;;;;;;;19.42;12.25;;;0.60;90.70;;;;;;4995689;28;20068;-80
2024/01/17 04:26:23;;;;;;;20.75;12.27;;;0.60;90.70;;;;;;4995864;28;20038;-80
2024/01/17 04:28:50;;;;;;;19.65;13.27;;;0.60;90.80;;;;;;4983334;28;20050;-81
2024/01/17 04:31:24;;;;;;;19.88;12.77;;;0.60;90.70;;;;;;5026051;28;20159;-80
2024/01/17 04:33:50;;;;;;;22.58;13.70;;;0.60;91.00;;;;;;5031824;28;20037;-79
2024/01/17 04:36:16;;;;;;;19.52;14.13;;;0.60;91.10;;;;;;5015532;28;20045;-80
2024/01/17 04:38:43;;;;;;;18.20;13.48;;;0.60;91.20;;;;;;5015488;28;20041;-79
2024/01/17 04:41:12;;;;;;;20.48;12.82;;;0.60;91.20;;;;;;5015514;28;20050;-80
2024/01/17 04:43:42;;;;;;;22.27;13.63;;;0.60;91.40;;;;;;4999514;28;20049;-81
2024/01/17 04:46:14;;;;;;;19.02;13.38;;;0.60;91.40;;;;;;5015339;28;20126;-81
2024/01/17 04:48:44;;;;;;;22.67;14.43;;;0.50;91.50;;;;;;5032009;28;20128;-81
2024/01/17 04:51:10;;;;;;;21.92;13.93;;;0.50;91.60;;;;;;5015751;28;20405;-80
2024/01/17 04:53:42;;;;;;;18.70;13.02;;;0.50;91.40;;;;;;5015525;28;20128;-79
2024/01/17 04:56:13;;;;;;;23.67;14.00;;;0.50;91.30;;;;;;5000123;28;20041;-80
2024/01/17 04:58:39;;;;;;;26.27;14.07;;;0.40;91.20;;;;;;5015215;28;20077;-80
2024/01/17 05:01:08;;;;;;;21.83;13.90;;;0.50;91.20;;;;;;4998869;28;20104;-80
2024/01/17 05:03:34;;;;;;;17.70;12.85;;;0.40;91.10;;;;;;5015257;28;20576;-81
2024/01/17 05:06:01;;;;;;;18.25;13.00;;;0.40;91.10;;;;;;5034213;28;20128;-79
2024/01/17 05:08:27;;;;;;;19.98;14.13;;;0.40;91.20;;;;;;5002433;28;20044;-81
2024/01/17 05:10:53;;;;;;;19.33;13.57;;;0.40;91.20;;;;;;5018858;28;20033;-81
2024/01/17 05:13:18;;;;;;;22.55;13.82;;;0.40;91.30;;;;;;5035293;28;20048;-81
2024/01/17 05:15:44;;;;;;;18.05;13.35;;;0.40;91.30;;;;;;5018941;28;20037;-82
2024/01/17 05:18:10;;;;;;;21.45;13.75;;;0.40;91.40;;;;;;5002369;28;20489;-81
2024/01/17 05:20:36;;;;;;;20.10;13.88;;;0.30;91.40;;;;;;5018631;28;20045;-81
2024/01/17 05:23:02;;;;;;;21.42;15.75;;;0.30;91.40;;;;;;5018990;28;20049;-79
2024/01/17 05:25:28;;;;;;;17.90;13.60;;;0.30;91.30;;;;;;5001961;28;20036;-79
2024/01/17 05:27:54;;;;;;;19.80;14.45;;;0.30;91.30;;;;;;5014704;28;20034;-79
2024/01/17 05:30:20;;;;;;;22.52;14.30;;;0.20;91.30;;;;;;5015195;28;20038;-81
2024/01/17 05:32:46;;;;;;;20.50;14.00;;;0.20;91.30;;;;;;4982829;28;20052;-80
2024/01/17 05:35:14;;;;;;;20.50;14.30;;;0.20;91.40;;;;;;5015449;28;20038;-80
2024/01/17 05:37:43;;;;;;;23.98;13.70;;;0.20;91.30;;;;;;5015202;28;20048;-81
2024/01/17 05:40:09;;;;;;;21.88;14.32;;;0.20;91.40;;;;;;4986060;28;20053;-80
2024/01/17 05:42:37;;;;;;;20.33;13.70;;;0.20;91.40;;;;;;5034513;28;20046;-80
2024/01/17 05:45:03;;;;;;;21.33;13.40;;;0.10;91.40;;;;;;5018102;28;20041;-80
2024/01/17 05:47:30;;;;;;;18.23;12.80;;;0.10;91.40;;;;;;5001753;28;20045;-79
2024/01/17 05:49:58;;;;;;;22.88;14.20;;;0.10;91.40;;;;;;5034558;28;20053;-81
2024/01/17 05:52:24;;;;;;;26.23;14.82;;;0.20;91.30;;;;;;5018011;28;20037;-81
2024/01/17 05:54:50;;;;;;;18.98;14.35;;;0.10;91.40;;;;;;5001709;28;20107;-79
2024/01/17 05:57:15;;;;;;;20.40;14.50;;;0.10;91.50;;;;;;5001947;28;20042;-80
2024/01/17 05:59:42;;;;;;;23.88;14.68;;;0.10;91.40;;;;;;5001506;28;20080;-82
2024/01/17 06:02:07;;;;;;;21.05;13.80;;;0.00;91.40;;;;;;5018192;28;20041;-80
2024/01/17 06:04:33;;;;;;;22.27;14.20;;;0.00;91.40;;;;;;5033791;28;20048;-80
2024/01/17 06:07:02;;;;;;;23.23;15.18;;;0.00;91.40;;;;;;5001458;28;20406;-81
2024/01/17 06:09:28;;;;;;;20.50;14.20;;;0.00;91.50;;;;;;5017998;28;20099;-80
2024/01/17 06:11:53;;;;;;;20.83;14.85;;;0.00;91.50;;;;;;5001331;28;20501;-80
2024/01/17 06:14:19;;;;;;;23.10;15.05;;;-3276.70;91.70;;;;;;5017665;28;20037;-80
2024/01/17 06:16:46;;;;;;;25.52;14.82;;;0.00;91.60;;;;;;5016432;28;20128;-80
2024/01/17 06:19:12;;;;;;;21.63;14.05;;;0.00;91.50;;;;;;5017417;28;20033;-81
2024/01/17 06:21:38;;;;;;;22.15;14.75;;;0.00;91.60;;;;;;5017877;28;20103;-82
2024/01/17 06:24:03;;;;;;;20.80;13.73;;;0.00;91.60;;;;;;5017721;28;20038;-81
2024/01/17 06:26:29;;;;;;;24.08;14.20;;;0.00;91.70;;;;;;5033820;28;20067;-81
2024/01/17 06:28:55;;;;;;;25.88;14.43;;;0.00;91.70;;;;;;5016962;28;20034;-80
2024/01/17 06:31:25;;;;;;;23.88;13.70;;;0.00;91.60;;;;;;5033795;28;20037;-81
2024/01/17 06:33:54;;;;;;;21.65;14.07;;;0.00;91.40;;;;;;5033785;28;20052;-79
2024/01/17 06:36:24;;;;;;;21.92;14.50;;;0.10;91.40;;;;;;5033681;28;20042;-82
2024/01/17 06:38:50;;;;;;;21.27;15.07;;;0.00;91.50;;;;;;5034075;28;20037;-82
2024/01/17 06:41:17;;;;;;;23.83;14.85;;;0.00;91.60;;;;;;5017239;28;20569;-82
2024/01/17 06:43:44;;;;;;;22.08;15.00;;;0.00;91.70;;;;;;5017130;28;20055;-81
2024/01/17 06:46:10;;;;;;;26.75;16.10;;;0.00;91.70;;;;;;5039000;28;20506;-80
2024/01/17 06:48:36;;;;;;;27.55;14.98;;;0.00;91.50;;;;;;5013883;28;20073;-81
2024/01/17 06:51:02;;;;;;;21.42;15.15;;;0.00;91.50;;;;;;4997255;28;20132;-80
2024/01/17 06:53:30;;;;;;;23.42;14.13;;;0.00;91.40;;;;;;4981048;28;20049;-81
2024/01/17 06:55:56;;;;;;;23.52;16.23;;;-3276.70;91.40;;;;;;5013505;28;20095;-80
2024/01/17 06:58:22;;;;;;;21.10;15.00;;;-3276.70;91.30;;;;;;4996905;28;20046;-81
2024/01/17 07:00:48;;;;;;;20.08;14.20;;;-3276.70;91.20;;;;;;5034346;28;20064;-81
2024/01/17 07:03:13;;;;;;;25.17;13.77;;;-3276.70;91.20;;;;;;5017928;28;20128;-79
2024/01/17 07:05:41;;;;;;;25.65;14.48;;;-3276.60;91.20;;;;;;5013737;28;20042;-81
2024/01/17 07:08:06;;;;;;;19.63;12.73;;;-3276.60;91.10;;;;;;5013361;28;20048;-81
2024/01/17 07:10:34;;;;;;;23.75;14.25;;;-3276.60;91.00;;;;;;4981094;28;20034;-81
2024/01/17 07:13:00;;;;;;;25.80;15.07;;;-3276.60;91.00;;;;;;4997200;28;20095;-81
2024/01/17 07:15:25;;;;;;;22.30;15.48;;;-3276.50;91.10;;;;;;5013114;28;20405;-80
2024/01/17 07:17:52;;;;;;;21.35;15.00;;;-3276.50;91.20;;;;;;4980967;28;20042;-81
2024/01/17 07:20:17;;;;;;;22.08;14.63;;;-3276.60;91.20;;;;;;4998016;28;20046;-80
2024/01/17 07:22:44;;;;;;;19.08;13.18;;;-3276.50;91.20;;;;;;4980606;28;20053;-80
2024/01/17 07:25:12;;;;;;;20.52;14.30;;;-3276.50;91.20;;;;;;5012952;28;20045;-82
2024/01/17 07:27:46;;;;;;;22.85;14.55;;;-3276.50;91.00;;;;;;4980551;28;20498;-79
2024/01/17 07:30:12;;;;;;;20.83;12.73;;;-3276.40;90.90;;;;;;5004487;28;20129;-80
2024/01/17 07:32:39;;;;;;;21.00;13.98;;;-3276.50;91.10;;;;;;5016214;28;20046;-80
2024/01/17 07:35:06;;;;;;;20.67;13.48;;;-3276.40;91.00;;;;;;5015883;28;20042;-81
2024/01/17 07:37:31;;;;;;;22.13;13.85;;;-3276.40;91.10;;;;;;5015329;28;20107;-81
2024/01/17 07:39:57;;;;;;;22.50;15.38;;;-3276.40;91.20;;;;;;5016050;28;20430;-80
2024/01/17 07:42:23;;;;;;;27.88;16.40;;;-3276.40;91.30;;;;;;4999659;28;20041;-78
2024/01/17 07:44:49;;;;;;;25.35;15.38;;;-3276.40;91.40;;;;;;5016078;28;20045;-79
2024/01/17 07:47:15;;;;;;;25.00;15.90;;;-3276.40;91.40;;;;;;5003413;28;20446;-84
2024/01/17 07:49:42;;;;;;;26.33;15.88;;;-3276.30;91.50;;;;;;4979591;28;20121;-80
2024/01/17 07:52:08;;;;;;;25.17;16.67;;;-3276.40;91.50;;;;;;4996022;28;20123;-80
2024/01/17 07:54:34;;;;;;;25.45;14.77;;;-3276.40;91.20;;;;;;4964280;28;20073;-79
2024/01/17 07:56:59;;;;;;;27.17;14.27;;;-3276.30;91.30;;;;;;5002150;28;20049;-81
2024/01/17 07:59:28;;;;;;;22.85;15.07;;;-3276.40;91.30;;;;;;5015877;28;20037;-80
2024/01/17 08:01:55;;;;;;;27.15;15.88;;;-3276.40;91.40;;;;;;4998990;28;20061;-81
2024/01/17 08:04:23;;;;;;;19.58;15.32;;;-3276.40;91.50;;;;;;5032423;28;20045;-79
2024/01/17 08:06:49;;;;;;;24.48;17.77;;;-3276.50;91.30;;;;;;5032160;28;20124;-81
2024/01/17 08:09:21;;;;;;;24.30;14.95;;;-3276.40;91.30;;;;;;5032199;28;20120;-80
2024/01/17 08:11:56;;;;;;;23.77;15.20;;;-3276.40;91.40;;;;;;5032331;28;20049;-79
2024/01/17 08:14:21;;;;;;;26.75;15.32;;;-3276.40;91.40;;;;;;5031823;28;20033;-81
2024/01/17 08:16:48;;;;;;;22.20;15.13;;;-3276.50;91.30;;;;;;4983244;28;20132;-79
2024/01/17 08:19:14;;;;;;;21.48;14.32;;;-3276.50;91.20;;;;;;5012019;28;20450;-81
2024/01/17 08:21:44;;;;;;;24.00;14.50;;;-3276.50;90.90;;;;;;5038376;28;20075;-81
2024/01/17 08:24:10;;;;;;;19.90;14.52;;;-3276.50;90.90;;;;;;5035316;28;20045;-80
2024/01/17 08:26:38;;;;;;;22.38;15.82;;;-3276.50;90.90;;;;;;5035411;28;20041;-78
2024/01/17 08:29:04;;;;;;;22.70;14.43;;;-3276.60;90.90;;;;;;5035433;28;20037;-79
2024/01/17 08:31:30;;;;;;;23.30;13.98;;;-3276.50;90.70;;;;;;5024582;28;20037;-80
2024/01/17 08:33:56;;;;;;;20.60;14.15;;;-3276.50;90.50;;;;;;5015352;28;20033;-80
2024/01/17 08:36:23;;;;;;;20.70;13.32;;;-3276.50;90.20;;;;;;5015723;28;20367;-80
2024/01/17 08:38:49;;;;;;;19.45;13.40;;;-3276.60;90.30;;;;;;5015837;28;20045;-80
2024/01/17 08:41:24;;;;;;;21.73;14.80;;;-3276.60;90.30;;;;;;5035350;28;20068;-81
2024/01/17 08:43:49;;;;;;;18.85;12.38;;;-3276.60;90.30;;;;;;5019449;28;20562;-80
2024/01/17 08:46:15;;;;;;;20.58;13.02;;;-3276.60;90.30;;;;;;5007903;28;20042;-80
2024/01/17 08:48:41;;;;;;;18.15;12.38;;;-3276.70;90.30;;;;;;5005415;28;20129;-79
2024/01/17 08:51:08;;;;;;;18.00;11.77;;;-3276.70;89.90;;;;;;4998058;28;20401;-80
2024/01/17 08:53:34;;;;;;;14.52;11.52;;;-3276.70;89.90;;;;;;5015322;28;20041;-79
2024/01/17 08:56:02;;;;;;;19.35;13.23;;;-3276.70;89.40;;;;;;5012436;28;20160;-80
2024/01/17 08:58:28;;;;;;;18.13;12.30;;;-3276.60;89.30;;;;;;5013809;28;20508;-79
2024/01/17 09:00:54;;;;;;;20.88;12.75;;;-3276.70;89.60;;;;;;4998850;28;20236;-80
2024/01/17 09:03:20;;;;;;;18.92;13.27;;;-3276.60;89.40;;;;;;5013804;28;20046;-80
2024/01/17 09:05:46;;;;;;;21.13;14.27;;;-3276.50;89.40;;;;;;5000943;28;20405;-79
2024/01/17 09:08:13;;;;;;;20.65;13.02;;;-3276.50;89.60;;;;;;5030194;28;20045;-80
2024/01/17 09:10:39;;;;;;;16.40;13.02;;;-3276.60;89.80;;;;;;5033562;28;20049;-79
2024/01/17 09:13:06;;;;;;;18.45;13.75;;;-3276.60;89.80;;;;;;5015635;28;20039;-79
2024/01/17 09:15:32;;;;;;;19.92;13.38;;;-3276.60;89.80;;;;;;5015162;28;20064;-79
2024/01/17 09:17:58;;;;;;;20.63;13.45;;;-3276.50;89.90;;;;;;5011053;28;20049;-79
2024/01/17 09:20:24;;;;;;;20.65;13.10;;;-3276.50;89.90;;;;;;4984533;28;20042;-80
2024/01/17 09:22:50;;;;;;;22.42;12.55;;;-3276.50;89.90;;;;;;5028805;28;20042;-79
2024/01/17 09:25:17;;;;;;;18.35;12.68;;;-3276.50;90.00;;;;;;4996884;28;20684;-80
2024/01/17 09:27:43;;;;;;;19.02;13.05;;;-3276.40;89.90;;;;;;5016094;28;20056;-79
2024/01/17 09:30:09;;;;;;;21.50;14.75;;;-3276.50;90.10;;;;;;4998716;28;20037;-80
2024/01/17 09:32:37;;;;;;;24.23;13.85;;;-3276.50;90.00;;;;;;5027581;28;20535;-80
2024/01/17 09:35:03;;;;;;;25.20;14.68;;;-3276.50;90.00;;;;;;5001900;28;20044;-80
2024/01/17 09:37:29;;;;;;;21.58;13.05;;;-3276.50;89.90;;;;;;4999860;28;20145;-79
2024/01/17 09:39:54;;;;;;;20.80;12.73;;;-3276.50;90.00;;;;;;5015530;28;20828;-79
2024/01/17 09:42:21;;;;;;;21.52;13.15;;;-3276.50;90.20;;;;;;5015970;28;20045;-79
2024/01/17 09:44:47;;;;;;;18.90;13.73;;;-3276.50;89.90;;;;;;5016147;28;20045;-80
2024/01/17 09:47:17;;;;;;;20.63;13.27;;;-3276.60;90.00;;;;;;5016163;28;20556;-80
2024/01/17 09:49:43;;;;;;;19.88;13.15;;;-3276.60;90.00;;;;;;5026467;28;20103;-81
2024/01/17 09:52:11;;;;;;;17.20;12.98;;;-3276.60;90.00;;;;;;5032182;28;20806;-79
2024/01/17 09:54:41;;;;;;;22.30;13.10;;;-3276.60;90.00;;;;;;4997542;28;20112;-78
2024/01/17 09:57:09;;;;;;;21.08;12.43;;;-3276.60;89.90;;;;;;5031487;28;20060;-81
2024/01/17 09:59:45;;;;;;;16.48;12.70;;;-3276.70;89.70;;;;;;5014791;28;20048;-80
2024/01/17 10:02:12;;;;;;;18.85;12.88;;;-3276.70;89.80;;;;;;5031824;28;20850;-80
2024/01/17 10:04:41;;;;;;;21.13;12.80;;;-3276.70;89.90;;;;;;5015589;28;20056;-79
2024/01/17 10:07:07;;;;;;;19.00;12.00;;;0.00;89.90;;;;;;5013924;28;20045;-79
2024/01/17 10:09:33;;;;;;;21.70;13.10;;;0.00;89.80;;;;;;4991846;28;20034;-80
2024/01/17 10:11:59;;;;;;;18.58;12.73;;;0.00;89.60;;;;;;5031580;28;20045;-80
2024/01/17 10:14:25;;;;;;;17.20;12.70;;;0.00;89.60;;;;;;5015285;28;20148;-79
2024/01/17 10:16:51;;;;;;;16.20;12.73;;;0.00;89.60;;;;;;5031852;28;20394;-79
2024/01/17 10:19:17;;;;;;;15.93;12.05;;;0.00;89.60;;;;;;5014524;28;20049;-78
2024/01/17 10:21:43;;;;;;;19.77;12.40;;;0.00;89.40;;;;;;5022728;28;20494;-80
2024/01/17 10:24:10;;;;;;;36.90;22.80;;;0.00;89.60;;;;;;5017719;28;20124;-80
2024/01/17 10:26:43;;;;;;;18.90;12.88;;;0.00;89.60;;;;;;5017279;28;20048;-78
2024/01/17 10:29:11;;;;;;;22.13;13.18;;;0.00;89.20;;;;;;5018037;28;20033;-79
2024/01/17 10:31:41;;;;;;;17.90;12.63;;;0.00;89.30;;;;;;5001634;28;20037;-80
2024/01/17 10:34:10;;;;;;;16.27;11.65;;;0.10;89.20;;;;;;5001058;28;20037;-80
2024/01/17 10:36:44;;;;;;;17.65;12.50;;;0.00;89.20;;;;;;5017069;28;20128;-80
2024/01/17 10:39:11;;;;;;;16.40;11.93;;;0.10;89.40;;;;;;5033717;28;20053;-79
2024/01/17 10:41:54;;;;;;;18.52;13.13;;;0.10;89.40;;;;;;5033938;28;20201;-79
2024/01/17 10:44:28;;;;;;;17.52;12.60;;;0.20;89.30;;;;;;5017197;28;20049;-81
2024/01/17 10:46:54;;;;;;;15.90;11.55;;;0.30;89.40;;;;;;5033516;28;20042;-80
2024/01/17 10:49:21;;;;;;;13.20;10.48;;;0.30;89.40;;;;;;5033811;28;20077;-79
2024/01/17 10:51:56;;;;;;;16.27;12.45;;;0.30;89.10;;;;;;5000739;28;20120;-79
2024/01/17 10:54:28;;;;;;;16.45;11.15;;;0.30;89.20;;;;;;5034038;28;20035;-81
2024/01/17 10:56:55;;;;;;;20.60;14.13;;;0.30;88.80;;;;;;5033343;28;20081;-79
2024/01/17 10:59:21;;;;;;;15.02;10.82;;;0.40;89.20;;;;;;5016815;28;20663;-80
2024/01/17 11:01:50;;;;;;;17.75;11.60;;;0.40;89.10;;;;;;5000292;28;20107;-79
2024/01/17 11:04:30;;;;;;;14.85;10.93;;;0.40;89.00;;;;;;5000300;28;20081;-81
2024/01/17 11:06:57;;;;;;;32.17;21.92;;;0.40;89.10;;;;;;5033232;28;20045;-79
2024/01/17 11:09:26;;;;;;;28.00;19.88;;;0.50;89.00;;;;;;5033164;28;20041;-79
2024/01/17 11:11:52;;;;;;;18.17;11.63;;;0.50;89.00;;;;;;5033390;28;20398;-81
2024/01/17 11:14:20;;;;;;;30.80;19.42;;;0.50;88.60;;;;;;5000491;28;20049;-80
2024/01/17 11:16:48;;;;;;;38.10;25.42;;;0.60;88.60;;;;;;5000956;28;20053;-79
2024/01/17 11:19:15;;;;;;;16.05;10.52;;;0.60;88.60;;;;;;5032790;28;20544;-79
2024/01/17 11:21:42;;;;;;;84.45;55.55;;;0.60;88.10;;;;;;5021944;28;20498;-81
2024/01/17 11:24:16;;;;;;;12.82;9.65;;;0.60;88.30;;;;;;5033032;28;20056;-81
2024/01/17 11:27:04;;;;;;;13.73;10.38;;;0.60;87.80;;;;;;5016137;28;20041;-80
2024/01/17 11:29:37;;;;;;;12.77;9.20;;;0.60;88.00;;;;;;5032779;28;20124;-80
2024/01/17 11:32:35;;;;;;;16.65;9.88;;;0.60;88.00;;;;;;5033042;28;20060;-79
2024/01/17 11:35:00;;;;;;;16.67;9.73;;;0.50;87.70;;;;;;5024600;28;20494;-80
2024/01/17 11:37:33;;;;;;;14.55;9.43;;;0.50;87.80;;;;;;5016388;28;20140;-81
2024/01/17 11:40:00;;;;;;;11.45;8.52;;;0.60;88.20;;;;;;5032729;28;20049;-79
2024/01/17 11:42:27;;;;;;;15.70;8.75;;;0.60;88.20;;;;;;5016065;28;20072;-80
2024/01/17 11:44:53;;;;;;;15.00;9.13;;;0.60;88.40;;;;;;5032693;28;20087;-81
2024/01/17 11:47:22;;;;;;;14.10;8.63;;;0.60;88.20;;;;;;5032687;28;20390;-80
2024/01/17 11:49:48;;;;;;;13.73;9.05;;;0.50;88.40;;;;;;5015943;28;20049;-80
2024/01/17 11:52:37;;;;;;;14.57;9.02;;;0.50;88.40;;;;;;4999982;28;20087;-80
2024/01/17 11:55:05;;;;;;;16.77;11.55;;;0.60;88.70;;;;;;4999778;28;20517;-80
2024/01/17 11:57:36;;;;;;;21.23;12.18;;;0.50;88.50;;;;;;5008626;28;20037;-81
2024/01/17 12:00:07;;;;;;;16.33;11.18;;;0.40;88.80;;;;;;4986395;28;20060;-81
2024/01/17 12:02:41;;;;;;;18.67;13.38;;;0.40;89.00;;;;;;5013936;28;20375;-80
2024/01/17 12:05:07;;;;;;;19.58;11.52;;;0.40;89.20;;;;;;5030240;28;20034;-81
2024/01/17 12:07:40;;;;;;;16.83;12.35;;;0.40;89.30;;;;;;5012102;28;20037;-79
2024/01/17 12:10:10;;;;;;;18.45;12.95;;;0.40;89.50;;;;;;5028503;28;20046;-80
2024/01/17 12:12:43;;;;;;;19.40;13.23;;;0.40;89.50;;;;;;5010596;28;20095;-80
2024/01/17 12:15:10;;;;;;;24.00;11.40;;;0.40;89.60;;;;;;5010390;28;20099;-82
2024/01/17 12:17:40;;;;;;;15.00;12.02;;;0.40;89.70;;;;;;5011419;28;20045;-81
2024/01/17 12:20:07;;;;;;;16.42;11.13;;;0.50;89.80;;;;;;5003519;28;20041;-80
2024/01/17 12:22:34;;;;;;;15.55;11.55;;;0.50;89.80;;;;;;5028953;28;20076;-80
2024/01/17 12:24:59;;;;;;;14.70;11.05;;;0.40;90.00;;;;;;4985744;28;20053;-79
2024/01/17 12:27:30;;;;;;;16.48;10.45;;;0.50;90.00;;;;;;5027531;28;20032;-81
2024/01/17 12:30:00;;;;;;;20.83;11.18;;;0.50;90.10;;;;;;4987677;28;20048;-82